Granada, CO (81041)

10:14 AM MST del 16 Gennaio 2017 (GMT -0700)
Musick on 196 | | Change Station

Alt. 3579 ft 38.12 °N, 102.34 °W | Updated 15 minutes ago

Coperto
Coperto
34.0 °F
Sembra 25 °F
N
12.0
Vento Variabile Vento da Nord
Gusts 21.0 mph

Oggi
Massima -- | Minima -- °F
--% Possibilità di precip.
Ieri
Massima -- | Minima -- °F
Precip. -- in
Pressione 29.99 in
Visibilità 6.0 miglia
Nuvole Coperto 1200 ft
Raffreddamento del vento 25 °F
Punto di rugiada 31 °F
Umidità 89%
Piovosità 0.00 in
Spessore del manto nevoso Non disponibile.
7:03 AM 4:54 PM
Gobba a levante, 80% visible
METAR KLAA 161653Z AUTO 31005KT 6SM UP BR OVC012 01/M01 A2995 RMK AO2 UPB25SNE25 SLP154 P0001 T00111011 TSNO
Pressione 29.99 in
Visibilità 6.0 miglia
Nuvole Coperto 1200 ft
Raffreddamento del vento 25 °F
Punto di rugiada 31 °F
Umidità 89%
Piovosità 0.00 in
Spessore del manto nevoso Non disponibile.
7:03 AM 4:54 PM
Gobba a levante, 80% visible
METAR KLAA 161653Z AUTO 31005KT 6SM UP BR OVC012 01/M01 A2995 RMK AO2 UPB25SNE25 SLP154 P0001 T00111011 TSNO

Get Your Daily Forecast Email!

Thanks for signing up!

Be on the lookout for a verification email in your inbox.

You'll start receiving the daily forecast at 8 AM.

×

10-Day Weather Forecast

Almanac

Astronomia

Jan. 16, 2017 Alba Tramonto
Ora attuale
Crepuscolo civile
Crepuscolo nautico
Crepuscolo astronomico
Luna
Estensione della luce visibile
Lunghezza del giorno
Tomorrow will be .
, % of the Moon is Illuminated

Gli estremi di oggi

State Highs State Lows

Community

WunderPhotos

Upload Photos

1,962,540 foto caricate!

WunderBlog® & News

Nearby

Qualità dell'aria

  Qualità dell'aria Indice AQ Inquinante
Not available.

Profondità neve

Stazione Profondità Altitudine

Attività sismica

Città  Distanza Mag. Data & Ora
Minimo Magnitudo Mostrato è 2.5.

Temperature delle acque costiere

Località Temperatura

Stations

Stazioni meteo nelle vicinanze

Ubicazione della stazione Temp. Raffreddamento del vento Punto di rugiada Umidità Vento Precip. Alt. Aggiornato Tipo
                   

Watches & Warnings

There are currently no watches in effect.